createdAt,value
2024-03-05T00:03:46.298Z,7.93
2024-03-05T00:18:48.452Z,7.47
2024-03-05T00:33:50.453Z,7.52
2024-03-05T00:48:53.228Z,7.42
2024-03-05T01:03:56.844Z,7.19
2024-03-05T01:18:59.140Z,7.01
2024-03-05T01:34:04.571Z,6.99
2024-03-05T01:49:09.347Z,6.87
2024-03-05T02:04:12.313Z,6.79
2024-03-05T02:19:14.467Z,6.49
2024-03-05T02:34:20.956Z,6.50
2024-03-05T02:49:23.050Z,6.37
2024-03-05T03:04:26.820Z,6.72
2024-03-05T03:19:29.054Z,5.64
2024-03-05T03:34:31.943Z,6.30
2024-03-05T03:49:34.792Z,6.42
2024-03-05T04:04:43.953Z,6.62
2024-03-05T04:19:46.261Z,5.97
2024-03-05T04:35:01.244Z,6.18
2024-03-05T04:50:03.836Z,5.91
2024-03-05T05:05:05.946Z,6.13
2024-03-05T05:20:09.663Z,6.70
2024-03-05T05:35:11.815Z,7.28
2024-03-05T05:50:19.569Z,7.57
2024-03-05T06:05:29.547Z,8.55
2024-03-05T06:20:33.999Z,8.67
2024-03-05T06:35:37.150Z,9.54
2024-03-05T06:50:40.339Z,10.81
2024-03-05T07:05:43.474Z,12.14
2024-03-05T07:20:47.288Z,11.10
2024-03-05T07:35:49.624Z,13.35
2024-03-05T07:50:51.654Z,14.10
2024-03-05T08:05:53.584Z,15.42
2024-03-05T08:20:56.835Z,16.89
2024-03-05T08:35:59.030Z,16.91
2024-03-05T08:51:01.186Z,17.48
2024-03-05T09:06:03.668Z,18.56
2024-03-05T09:21:08.842Z,17.63
2024-03-05T09:36:10.992Z,17.95
2024-03-05T09:51:15.955Z,18.33
2024-03-05T10:06:20.213Z,17.94
2024-03-05T10:21:24.008Z,16.74
2024-03-05T10:36:35.117Z,16.47
2024-03-05T10:51:40.012Z,15.99
2024-03-05T11:06:42.795Z,17.30
2024-03-05T11:21:45.055Z,17.50
2024-03-05T11:37:06.640Z,18.81
2024-03-05T11:52:09.564Z,18.78
2024-03-05T12:07:15.058Z,17.16
2024-03-05T12:22:17.972Z,16.36
2024-03-05T12:37:20.963Z,15.47
2024-03-05T12:52:26.292Z,15.43
2024-03-05T13:07:28.369Z,15.29
2024-03-05T13:22:30.822Z,15.00
2024-03-05T13:37:36.643Z,14.90
2024-03-05T13:52:43.495Z,14.86
2024-03-05T14:07:45.854Z,14.56
2024-03-05T14:22:48.204Z,14.23
2024-03-05T14:37:51.021Z,14.55
2024-03-05T14:52:55.733Z,13.97
2024-03-05T15:07:57.964Z,13.85
2024-03-05T15:23:01.003Z,13.58
2024-03-05T15:38:06.854Z,12.90
2024-03-05T15:53:09.593Z,12.33
2024-03-05T16:08:13.085Z,12.67
2024-03-05T16:23:15.376Z,12.92
2024-03-05T16:38:17.742Z,12.12
2024-03-05T16:53:19.969Z,12.08
2024-03-05T17:08:25.623Z,11.79
2024-03-05T17:23:42.618Z,11.48
2024-03-05T17:38:44.580Z,11.47
2024-03-05T17:53:47.160Z,10.74
2024-03-05T18:08:49.293Z,9.89
2024-03-05T18:23:57.973Z,10.30
2024-03-05T18:39:01.486Z,8.89
2024-03-05T18:54:06.254Z,9.35
2024-03-05T19:09:10.189Z,8.50
2024-03-05T19:24:12.829Z,8.84
2024-03-05T19:39:14.819Z,8.37
2024-03-05T19:54:16.817Z,8.15
2024-03-05T20:09:21.728Z,7.55
2024-03-05T20:24:23.865Z,7.64
2024-03-05T20:39:25.836Z,6.30
2024-03-05T20:54:27.829Z,6.70
2024-03-05T21:09:29.780Z,7.25
2024-03-05T21:24:31.963Z,6.70
2024-03-05T21:39:34.594Z,6.82
2024-03-05T21:54:36.548Z,6.13
2024-03-05T22:09:40.540Z,7.13
2024-03-05T22:24:42.682Z,7.18
2024-03-05T22:39:44.622Z,7.13
2024-03-05T22:54:46.992Z,7.09
2024-03-05T23:09:48.999Z,7.06
2024-03-05T23:24:51.158Z,6.83
2024-03-05T23:39:53.368Z,6.33
2024-03-05T23:54:58.088Z,5.37
